KSNL

Shawnee Regional Airport

Shawnee, Oklahoma, USA
METAR KSNL 170535Z AUTO 00000KT 10SM CLR 07/05 A3031 RMK AO2 T00650050
Observed Flight Rules
Oct-17 @ 05:35 UTC (29 minutes ago) Visual Flight Rules
Visibility Clouds
10 miles
  • Clear skies
Temperatures Readings
Current 7°C / 45°F
Dewpoint 5°C / 41°F
Humidity 87%
Altimeter 30.31" Hg
Pressure 1026 hPa
Elevation 327
METAR KSNL 170535Z AUTO 00000KT 10SM CLR 07/05 A3031 RMK AO2 T00650050
Observed Flight Rules
Oct-17 @ 05:35 UTC
(29 minutes ago)
VFR
Clouds
  • Clear skies
Temperature Dewpoint
7°C / 45°F 5°C / 41°F
Humidity Altimeter Pressure
87% 30.31" Hg 1026 hPa